Aérodrome :
LOGIN :

S'inscrire | Disclaimer

   EN    FR    IT 

 










Légende :    VFR   VFR Marginal   IFR   IFR Intensif   IFR Très Intensif
Visi : 
Plafond : 
>= 8 km
>= 3000ft
5 à 8 km
1000 à 3000 ft
1500m à 5 km
500 à 1000 ft
800 à 1500m
200 à 500 ft
< 800m
< 200 ft
Symboles :   Orages  Brouillard  Fortes neiges  Fortes précipitations  Vent > 20 kt
SIGMETs :   Divers  Orages  Givrage  Turbulence  Onde Orograph.  Cendres Volcan.







- Altitude de l'aérodrome : 82 ft
- Code IATA : QIE
- Voir les cartes d'approche


LFMI - Istres

DERNIER METAR :
  • 221800Z AUTO 33017KT CAVOK 30/10 Q1010 NOSIG

METARs EXPIRÉS :
  • 221730Z AUTO 33017KT CAVOK 30/09 Q1010 NOSIG
  • 221700Z AUTO 33017KT CAVOK 31/10 Q1010 NOSIG
  • 221630Z AUTO 25009KT 220V280 CAVOK 29/15 Q1010 NOSIG
  • 221600Z AUTO 23014KT CAVOK 27/15 Q1010 BECMG 32015KT
  • 221530Z AUTO 23013KT CAVOK 28/15 Q1010 BECMG 32015KT

TAF AMD TAF LFMI
Valide du 22 à 15h jusqu'au 23 à 15h UTC


221526Z 2215/2315 25015G25KT CAVOK
BECMG 2215/2218 32015KT
BECMG 2306/2307 34020G30KT
BECMG 2310/2311 34015KT
Pas de NOTAMs connus pour ce terrain.
1 SIGMET publié pour la FIR Marseille (LFMM) :
 
Orages noyés dans la masse
LFMM SIGMET 3 VALID 221800/222000 LFPW
LFMM MARSEILLE FIR/UIR EMBD TS OBS AT 1800Z WI N4500 E00700 - N4400 E00700 - N4400 E00715 - N4330 E00615 - N4445 E00530 - N4500 E00700 TOP FL350 STNR NC=



MET'MAP, la Météo Aéronautique d'un coup d'oeil ! - Copyright ORBIFLY Décembre 2007 - Disclaimer

ORBIFLY MET'MAP TEAM :

Programmation & Développement : Alexandra Zaïnal
Conception & Développement : Baudouin d'Aumeries
Co-Programmation & Développement : Marc-Olivier Méhu
Soutien technique & logistique : Manuel Goepfert

Contact : metmap@orbifly.com




SOURCES & CREDITS :

   NOAA